Richmond International Airport
KRIC : now visible

Airfield :











YOU CAN JOIN US ON...

 
LOGIN :

Register | Disclaimer

   EN    FR    IT 

 









Legend :    VFR   Marginal VFR   IFR   Intensive IFR   Very Intensive IFR
Visi :
Ceiling :
>= 8 km
>= 3000ft
5 to 8 km
1000 to 3000 ft
1500m to 5 km
500 to 1000 ft
800 to 1500m
200 to 500 ft
< 800m
< 200 ft
Symbols :   Thunderstorms  Fog  Heavy snow  Heavy precipitations  Wind > 20 kt






- Airport Elevation : 167 ft
- IATA code : RIC


KRIC - Richmond International

CURRENT METAR :
  • 110554Z 00000KT 10SM CLR 23/22 A3000 RMK AO2 SLP160 T02280217 10289 20228 50005

EXPIRED METARs :
  • 110454Z 00000KT 10SM FEW100 23/22 A3000 RMK AO2 SLP161 T02330217 403220228
  • 110354Z 13004KT 10SM FEW100 SCT300 23/22 A3000 RMK AO2 SLP162 T02330222

TAF KRIC
Valid from the 11 at 06:00 until the 12 at 06:00 UTC


110520Z 1106/1206 00000KT P6SM SCT100
FM110900 00000KT P6SM SCT002 SCT030
TEMPO 1109/1112 2SM BR OVC002
FM111300 VRB03KT P6SM SCT015 BKN250
FM111600 19004KT P6SM SCT050 BKN250
FM120000 18003KT P6SM SCT100
KZDC FIR / North America



MET'MAP, your aeronautical weather chart ! - Copyright ORBIFLY December 2007 - Disclaimer

ORBIFLY MET'MAP TEAM :

Programming & Development : Alexandra Zaïnal
Concept & original design : Baudouin d'Aumeries
Assistance for programming : Marc-Olivier Méhu
Technical & hardware support : Manuel Goepfert

Contact : metmap@orbifly.com




SOURCES & CREDITS :

   NOAA       Earth
Advisory